createdAt,value
2022-10-21T00:04:17.197Z,98303.94
2022-10-21T00:09:19.001Z,98320.19
2022-10-21T00:14:20.946Z,98310.44
2022-10-21T00:19:22.882Z,98303.75
2022-10-21T00:24:24.771Z,98294.00
2022-10-21T00:29:26.586Z,98290.59
2022-10-21T00:34:30.885Z,98284.28
2022-10-21T00:39:33.218Z,98277.97
2022-10-21T00:44:35.998Z,98261.09
2022-10-21T00:49:42.397Z,98265.66
2022-10-21T00:54:47.015Z,98259.47
2022-10-21T00:59:53.871Z,98253.47
2022-10-21T01:04:59.810Z,98231.22
2022-10-21T01:10:01.805Z,98217.28
2022-10-21T01:15:31.017Z,98212.44
2022-10-21T01:21:03.709Z,98208.38
2022-10-21T01:26:14.517Z,98202.56
2022-10-21T01:31:41.277Z,98184.38
2022-10-21T01:36:57.860Z,98176.09
2022-10-21T01:42:25.888Z,98171.88
2022-10-21T01:47:34.089Z,98150.63
2022-10-21T01:52:36.369Z,98135.06
2022-10-21T01:57:44.594Z,98137.81
2022-10-21T02:02:48.926Z,98143.66
2022-10-21T02:07:51.059Z,98137.00
2022-10-21T02:12:56.989Z,98128.59
2022-10-21T02:18:08.033Z,98115.44
2022-10-21T02:23:15.662Z,98108.28
2022-10-21T02:28:19.268Z,98110.06
2022-10-21T02:33:43.265Z,98129.06
2022-10-21T02:38:49.615Z,98115.25
2022-10-21T02:49:16.439Z,98104.72
2022-10-21T02:54:18.233Z,98115.91
2022-10-21T02:59:20.173Z,98126.75
2022-10-21T03:04:22.127Z,98100.13
2022-10-21T03:09:23.966Z,98087.13
2022-10-21T03:14:25.733Z,98099.47
2022-10-21T03:19:27.493Z,98093.66
2022-10-21T03:24:29.329Z,98097.06
2022-10-21T03:29:31.278Z,98096.88
2022-10-21T03:34:33.066Z,98093.78
2022-10-21T03:39:34.877Z,98080.97
2022-10-21T03:44:36.736Z,98074.50
2022-10-21T03:49:38.540Z,98075.81
2022-10-21T03:54:40.537Z,98082.66
2022-10-21T03:59:42.396Z,98070.34
2022-10-21T04:04:44.816Z,98068.09
2022-10-21T04:09:46.644Z,98071.38
2022-10-21T04:14:48.423Z,98063.44
2022-10-21T04:19:50.169Z,98069.47
2022-10-21T04:24:52.187Z,98061.06
2022-10-21T04:29:54.015Z,98030.41
2022-10-21T04:34:55.798Z,98035.94
2022-10-21T04:39:57.618Z,98063.84
2022-10-21T04:44:59.424Z,98040.66
2022-10-21T04:50:01.395Z,98022.66
2022-10-21T04:55:03.927Z,98008.41
2022-10-21T05:00:07.924Z,98005.81
2022-10-21T05:05:10.236Z,98015.22
2022-10-21T05:10:12.031Z,98008.25
2022-10-21T05:15:14.777Z,98012.78
2022-10-21T05:20:16.862Z,97994.00
2022-10-21T05:25:19.631Z,97990.13
2022-10-21T05:30:21.897Z,97988.03
2022-10-21T05:35:23.748Z,97983.38
2022-10-21T05:40:25.624Z,97981.75
2022-10-21T05:45:27.752Z,97986.47
2022-10-21T05:50:29.526Z,97989.88
2022-10-21T05:55:31.365Z,97986.63
2022-10-21T06:00:33.526Z,97986.63
2022-10-21T06:05:35.494Z,97989.22
2022-10-21T06:10:37.303Z,98002.03
2022-10-21T06:15:39.128Z,97982.72
2022-10-21T06:20:40.821Z,97973.97
2022-10-21T06:26:00.158Z,97985.59
2022-10-21T06:31:02.074Z,97998.22
2022-10-21T06:36:04.751Z,97994.97
2022-10-21T06:41:12.328Z,97997.19
2022-10-21T06:46:16.334Z,97997.97
2022-10-21T06:51:22.557Z,98021.44
2022-10-21T06:56:26.616Z,98031.50
2022-10-21T07:01:41.769Z,98023.19
2022-10-21T07:06:55.367Z,98024.13
2022-10-21T07:11:57.209Z,98041.63
2022-10-21T07:16:59.121Z,98029.59
2022-10-21T07:22:04.046Z,98012.50
2022-10-21T07:27:06.271Z,98003.69
2022-10-21T07:32:08.550Z,98014.38
2022-10-21T07:37:10.540Z,98014.66
2022-10-21T07:42:12.451Z,97997.75
2022-10-21T07:47:14.378Z,97994.44
2022-10-21T07:52:16.347Z,97992.06
2022-10-21T07:57:18.315Z,97986.75
2022-10-21T08:02:20.598Z,97979.56
2022-10-21T08:07:22.881Z,97980.56
2022-10-21T08:12:25.640Z,97983.59
2022-10-21T08:17:27.818Z,97976.75
2022-10-21T08:22:29.931Z,97968.97
2022-10-21T08:27:31.912Z,97972.19
2022-10-21T08:32:33.941Z,97971.47
2022-10-21T08:37:35.845Z,97965.47
2022-10-21T08:42:42.816Z,97953.38
2022-10-21T08:47:49.796Z,97959.13
2022-10-21T08:53:00.109Z,97954.16
2022-10-21T08:58:03.520Z,97935.47
2022-10-21T09:03:28.732Z,97938.06
2022-10-21T09:08:42.656Z,97935.09
2022-10-21T09:13:51.557Z,97939.56
2022-10-21T09:19:02.630Z,97934.66
2022-10-21T09:24:13.802Z,97921.84
2022-10-21T09:29:15.680Z,97909.19
2022-10-21T09:34:29.565Z,97902.88
2022-10-21T09:39:42.254Z,97911.47
2022-10-21T09:44:45.679Z,97893.44
2022-10-21T09:50:06.873Z,97911.47
2022-10-21T09:55:14.222Z,97915.94
2022-10-21T10:00:16.302Z,97906.78
2022-10-21T10:05:33.553Z,97911.25
2022-10-21T10:10:35.762Z,97912.47
2022-10-21T10:15:37.674Z,97911.19
2022-10-21T10:20:39.610Z,97905.22
2022-10-21T10:25:41.503Z,97905.91
2022-10-21T10:30:43.540Z,97900.94
2022-10-21T10:36:00.473Z,97910.03
2022-10-21T10:41:18.724Z,97904.72
2022-10-21T10:46:34.057Z,97910.44
2022-10-21T10:51:36.460Z,97902.72
2022-10-21T10:56:43.411Z,97890.78
2022-10-21T11:01:54.222Z,97886.41
2022-10-21T11:07:13.470Z,97883.47
2022-10-21T11:12:25.490Z,97886.09
2022-10-21T11:17:39.070Z,97890.13
2022-10-21T11:23:00.461Z,97878.06
2022-10-21T11:28:29.968Z,97862.22
2022-10-21T11:33:45.274Z,97862.44
2022-10-21T11:39:13.213Z,97854.00
2022-10-21T11:44:52.683Z,97850.56
2022-10-21T11:50:16.562Z,97842.94
2022-10-21T11:55:41.467Z,97851.97
2022-10-21T12:01:17.379Z,97836.09
2022-10-21T12:06:19.595Z,97856.41
2022-10-21T12:11:27.999Z,97862.22
2022-10-21T12:16:34.180Z,97873.84
2022-10-21T12:21:39.387Z,97875.66
2022-10-21T12:26:51.888Z,97873.84
2022-10-21T12:32:07.788Z,97879.06
2022-10-21T12:37:46.782Z,97875.25
2022-10-21T12:42:59.227Z,97871.22
2022-10-21T12:48:02.015Z,97880.00
2022-10-21T12:53:03.747Z,97877.97
2022-10-21T12:58:17.289Z,97873.53
2022-10-21T13:03:22.107Z,97873.50
2022-10-21T13:08:27.595Z,97879.91
2022-10-21T13:13:39.743Z,97899.56
2022-10-21T13:18:51.389Z,97892.75
2022-10-21T13:23:54.982Z,97886.72
2022-10-21T13:29:02.542Z,97885.50
2022-10-21T13:34:04.943Z,97893.06
2022-10-21T13:39:35.792Z,97896.59
2022-10-21T13:44:41.033Z,97884.47
2022-10-21T13:49:50.823Z,97898.47
2022-10-21T13:55:24.231Z,97901.41
2022-10-21T14:00:30.115Z,97890.50
2022-10-21T14:05:37.383Z,97901.06
2022-10-21T14:10:47.173Z,97887.38
2022-10-21T14:15:49.641Z,97894.94
2022-10-21T14:20:53.705Z,97874.03
2022-10-21T14:26:04.343Z,97862.13
2022-10-21T14:31:09.193Z,97866.66
2022-10-21T14:36:15.207Z,97880.22
2022-10-21T14:41:22.269Z,97900.31
2022-10-21T14:46:24.703Z,97904.41
2022-10-21T14:51:28.023Z,97889.03
2022-10-21T14:56:35.128Z,97890.28
2022-10-21T15:01:43.045Z,97903.31
2022-10-21T15:06:59.598Z,97911.75
2022-10-21T15:12:18.773Z,97922.56
2022-10-21T15:17:22.888Z,97937.72
2022-10-21T15:22:29.161Z,97904.41
2022-10-21T15:27:41.092Z,97888.34
2022-10-21T15:32:45.212Z,97882.34
2022-10-21T15:37:51.377Z,97887.56
2022-10-21T15:42:53.313Z,97884.13
2022-10-21T15:47:55.827Z,97889.53
2022-10-21T15:52:57.820Z,97885.88
2022-10-21T15:57:59.747Z,97866.53
2022-10-21T16:03:02.196Z,97860.47
2022-10-21T16:08:04.677Z,97869.81
2022-10-21T16:13:06.688Z,97877.63
2022-10-21T16:18:14.141Z,97911.03
2022-10-21T16:23:15.962Z,97929.69
2022-10-21T16:28:17.781Z,97911.66
2022-10-21T16:33:19.602Z,97897.56
2022-10-21T16:38:21.391Z,97893.09
2022-10-21T16:43:24.067Z,97888.63
2022-10-21T16:48:26.047Z,97902.03
2022-10-21T16:53:29.187Z,97912.25
2022-10-21T16:58:31.349Z,97905.88
2022-10-21T17:03:34.022Z,97903.25
2022-10-21T17:08:36.474Z,97911.06
2022-10-21T17:13:38.450Z,97900.13
2022-10-21T17:18:40.349Z,97898.56
2022-10-21T17:23:42.253Z,97891.00
2022-10-21T17:28:44.749Z,97896.03
2022-10-21T17:33:47.412Z,97888.03
2022-10-21T17:38:49.689Z,97897.47
2022-10-21T17:43:51.551Z,97902.84
2022-10-21T17:48:55.693Z,97907.44
2022-10-21T17:53:57.516Z,97907.44
2022-10-21T17:59:01.345Z,97902.41
2022-10-21T18:04:03.709Z,97908.88
2022-10-21T18:09:08.542Z,97897.72
2022-10-21T18:14:10.867Z,97898.78
2022-10-21T18:19:12.924Z,97887.81
2022-10-21T18:24:14.710Z,97894.06
2022-10-21T18:29:16.851Z,97877.88
2022-10-21T18:34:18.763Z,97868.09
2022-10-21T18:39:20.754Z,97876.69
2022-10-21T18:44:22.567Z,97873.91
2022-10-21T18:49:24.359Z,97873.72
2022-10-21T18:54:26.163Z,97869.31
2022-10-21T18:59:27.962Z,97856.91
2022-10-21T19:04:29.929Z,97851.31
2022-10-21T19:09:31.814Z,97856.16
2022-10-21T19:14:34.080Z,97862.63
2022-10-21T19:19:39.345Z,97861.25
2022-10-21T19:24:41.749Z,97871.13
2022-10-21T19:29:43.584Z,97863.72
2022-10-21T19:34:45.440Z,97871.97
2022-10-21T19:39:47.222Z,97869.81
2022-10-21T19:44:48.931Z,97877.25
2022-10-21T19:49:50.899Z,97870.66
2022-10-21T19:54:53.079Z,97877.09
2022-10-21T19:59:56.265Z,97880.31
2022-10-21T20:04:58.057Z,97883.53
2022-10-21T20:09:59.780Z,97882.53
2022-10-21T20:15:01.563Z,97898.81
2022-10-21T20:20:04.053Z,97893.41
2022-10-21T20:25:06.167Z,97888.19
2022-10-21T20:30:09.588Z,97887.00
2022-10-21T20:35:11.380Z,97887.63
2022-10-21T20:40:13.207Z,97884.00
2022-10-21T20:45:15.079Z,97882.81
2022-10-21T20:50:16.941Z,97881.63
2022-10-21T20:55:19.624Z,97878.03
2022-10-21T21:00:21.341Z,97883.06
2022-10-21T21:05:23.104Z,97891.69
2022-10-21T21:10:24.894Z,97886.47
2022-10-21T21:15:26.874Z,97896.91
2022-10-21T21:20:28.646Z,97888.47
2022-10-21T21:25:30.475Z,97880.03
2022-10-21T21:30:32.204Z,97886.25
2022-10-21T21:35:33.911Z,97899.47
2022-10-21T21:40:35.607Z,97903.25
2022-10-21T21:45:37.537Z,97903.63
2022-10-21T21:50:40.340Z,97905.06
2022-10-21T21:55:42.491Z,97918.53
2022-10-21T22:00:44.426Z,97904.09
2022-10-21T22:05:46.274Z,97901.53
2022-10-21T22:10:48.066Z,97899.34
2022-10-21T22:15:49.879Z,97890.16
2022-10-21T22:20:51.904Z,97888.16
2022-10-21T22:25:54.627Z,97884.16
2022-10-21T22:31:04.592Z,97892.22
2022-10-21T22:36:06.679Z,97881.59
2022-10-21T22:41:12.260Z,97893.44
2022-10-21T22:46:33.251Z,97887.22
2022-10-21T22:51:36.110Z,97881.03
2022-10-21T22:56:38.747Z,97875.00
2022-10-21T23:01:40.619Z,97867.16
2022-10-21T23:06:42.467Z,97874.56
2022-10-21T23:11:46.744Z,97861.91
2022-10-21T23:16:48.839Z,97851.69
2022-10-21T23:21:50.564Z,97854.88
2022-10-21T23:26:52.800Z,97844.22
2022-10-21T23:31:57.608Z,97830.34
2022-10-21T23:36:59.397Z,97845.13
2022-10-21T23:42:01.240Z,97861.53
2022-10-21T23:47:03.083Z,97864.72
2022-10-21T23:52:06.262Z,97886.75
2022-10-21T23:57:08.241Z,97890.59
